sensor_id;sensor_type;location;lat;lon;timestamp;P1;durP1;ratioP1;P2;durP2;ratioP2
79487;SDS011;68949;53.176;18.088;2024-02-26T00:00:12;21.40;;;10.90;;
79487;SDS011;68949;53.176;18.088;2024-02-26T00:02:59;26.60;;;11.30;;
79487;SDS011;68949;53.176;18.088;2024-02-26T00:05:26;19.60;;;10.70;;
79487;SDS011;68949;53.176;18.088;2024-02-26T00:07:53;21.60;;;10.70;;
79487;SDS011;68949;53.176;18.088;2024-02-26T00:10:20;20.00;;;9.70;;
79487;SDS011;68949;53.176;18.088;2024-02-26T00:12:47;21.60;;;9.50;;
79487;SDS011;68949;53.176;18.088;2024-02-26T00:15:14;23.50;;;10.90;;
79487;SDS011;68949;53.176;18.088;2024-02-26T00:17:41;28.30;;;12.50;;
79487;SDS011;68949;53.176;18.088;2024-02-26T00:20:10;23.00;;;10.20;;
79487;SDS011;68949;53.176;18.088;2024-02-26T00:22:37;23.00;;;10.10;;
79487;SDS011;68949;53.176;18.088;2024-02-26T00:25:04;21.90;;;10.10;;
79487;SDS011;68949;53.176;18.088;2024-02-26T00:27:31;23.80;;;11.40;;
79487;SDS011;68949;53.176;18.088;2024-02-26T00:29:58;24.50;;;11.20;;
79487;SDS011;68949;53.176;18.088;2024-02-26T00:32:25;27.20;;;12.00;;
79487;SDS011;68949;53.176;18.088;2024-02-26T00:34:51;27.70;;;12.00;;
79487;SDS011;68949;53.176;18.088;2024-02-26T00:37:18;27.50;;;11.70;;
79487;SDS011;68949;53.176;18.088;2024-02-26T00:39:45;25.10;;;11.10;;
79487;SDS011;68949;53.176;18.088;2024-02-26T00:42:13;25.40;;;11.10;;
79487;SDS011;68949;53.176;18.088;2024-02-26T00:44:40;24.60;;;10.10;;
79487;SDS011;68949;53.176;18.088;2024-02-26T00:47:07;20.80;;;10.40;;
79487;SDS011;68949;53.176;18.088;2024-02-26T00:49:33;20.90;;;10.00;;
79487;SDS011;68949;53.176;18.088;2024-02-26T00:52:00;22.10;;;11.00;;
79487;SDS011;68949;53.176;18.088;2024-02-26T00:54:27;23.50;;;11.10;;
79487;SDS011;68949;53.176;18.088;2024-02-26T00:56:53;21.60;;;10.50;;
79487;SDS011;68949;53.176;18.088;2024-02-26T00:59:20;22.30;;;8.00;;
79487;SDS011;68949;53.176;18.088;2024-02-26T01:01:47;24.00;;;11.20;;
79487;SDS011;68949;53.176;18.088;2024-02-26T01:04:15;23.30;;;10.10;;
79487;SDS011;68949;53.176;18.088;2024-02-26T01:06:42;24.60;;;11.10;;
79487;SDS011;68949;53.176;18.088;2024-02-26T01:09:08;24.70;;;11.70;;
79487;SDS011;68949;53.176;18.088;2024-02-26T01:11:37;21.90;;;10.40;;
79487;SDS011;68949;53.176;18.088;2024-02-26T01:14:04;23.90;;;10.90;;
79487;SDS011;68949;53.176;18.088;2024-02-26T01:16:31;20.80;;;10.60;;
79487;SDS011;68949;53.176;18.088;2024-02-26T01:18:58;26.50;;;13.10;;
79487;SDS011;68949;53.176;18.088;2024-02-26T01:21:25;24.30;;;11.30;;
79487;SDS011;68949;53.176;18.088;2024-02-26T01:23:53;29.30;;;13.30;;
79487;SDS011;68949;53.176;18.088;2024-02-26T01:26:20;27.60;;;13.80;;
79487;SDS011;68949;53.176;18.088;2024-02-26T01:28:48;26.20;;;12.40;;
79487;SDS011;68949;53.176;18.088;2024-02-26T01:31:15;33.10;;;13.20;;
79487;SDS011;68949;53.176;18.088;2024-02-26T01:33:42;30.40;;;13.70;;
79487;SDS011;68949;53.176;18.088;2024-02-26T01:36:08;21.60;;;9.00;;
79487;SDS011;68949;53.176;18.088;2024-02-26T01:38:35;27.30;;;11.20;;
79487;SDS011;68949;53.176;18.088;2024-02-26T01:41:02;30.50;;;13.60;;
79487;SDS011;68949;53.176;18.088;2024-02-26T01:43:29;35.90;;;16.40;;
79487;SDS011;68949;53.176;18.088;2024-02-26T01:45:55;34.80;;;17.00;;
79487;SDS011;68949;53.176;18.088;2024-02-26T01:48:22;32.30;;;15.10;;
79487;SDS011;68949;53.176;18.088;2024-02-26T01:50:49;39.80;;;16.80;;
79487;SDS011;68949;53.176;18.088;2024-02-26T01:53:17;38.80;;;16.50;;
79487;SDS011;68949;53.176;18.088;2024-02-26T01:55:45;31.80;;;14.80;;
79487;SDS011;68949;53.176;18.088;2024-02-26T01:58:13;35.10;;;16.30;;
79487;SDS011;68949;53.176;18.088;2024-02-26T02:00:40;32.50;;;16.30;;
79487;SDS011;68949;53.176;18.088;2024-02-26T02:03:07;34.70;;;15.30;;
79487;SDS011;68949;53.176;18.088;2024-02-26T02:05:36;29.30;;;15.50;;
79487;SDS011;68949;53.176;18.088;2024-02-26T02:08:10;31.30;;;15.70;;
79487;SDS011;68949;53.176;18.088;2024-02-26T02:10:43;29.50;;;14.80;;
79487;SDS011;68949;53.176;18.088;2024-02-26T02:13:10;25.90;;;12.10;;
79487;SDS011;68949;53.176;18.088;2024-02-26T02:15:37;27.80;;;12.70;;
79487;SDS011;68949;53.176;18.088;2024-02-26T02:18:04;25.90;;;13.10;;
79487;SDS011;68949;53.176;18.088;2024-02-26T02:20:35;31.40;;;14.90;;
79487;SDS011;68949;53.176;18.088;2024-02-26T02:23:02;29.20;;;13.80;;
79487;SDS011;68949;53.176;18.088;2024-02-26T02:25:29;33.40;;;15.80;;
79487;SDS011;68949;53.176;18.088;2024-02-26T02:27:56;30.90;;;14.90;;
79487;SDS011;68949;53.176;18.088;2024-02-26T02:30:25;34.60;;;15.30;;
79487;SDS011;68949;53.176;18.088;2024-02-26T02:32:55;17.30;;;6.90;;
79487;SDS011;68949;53.176;18.088;2024-02-26T02:35:24;22.10;;;9.40;;
79487;SDS011;68949;53.176;18.088;2024-02-26T02:37:52;32.50;;;12.80;;
79487;SDS011;68949;53.176;18.088;2024-02-26T02:40:19;37.00;;;17.10;;
79487;SDS011;68949;53.176;18.088;2024-02-26T02:42:46;36.10;;;16.00;;
79487;SDS011;68949;53.176;18.088;2024-02-26T02:45:13;30.50;;;14.20;;
79487;SDS011;68949;53.176;18.088;2024-02-26T02:47:39;32.70;;;16.10;;
79487;SDS011;68949;53.176;18.088;2024-02-26T02:50:06;34.80;;;16.90;;
79487;SDS011;68949;53.176;18.088;2024-02-26T02:52:33;34.40;;;16.10;;
79487;SDS011;68949;53.176;18.088;2024-02-26T02:55:01;35.40;;;17.00;;
79487;SDS011;68949;53.176;18.088;2024-02-26T02:57:28;35.90;;;15.70;;
79487;SDS011;68949;53.176;18.088;2024-02-26T02:59:56;41.50;;;17.90;;
79487;SDS011;68949;53.176;18.088;2024-02-26T03:02:23;15.10;;;7.00;;
79487;SDS011;68949;53.176;18.088;2024-02-26T03:04:51;37.50;;;17.10;;
79487;SDS011;68949;53.176;18.088;2024-02-26T03:07:20;35.30;;;17.40;;
79487;SDS011;68949;53.176;18.088;2024-02-26T03:09:47;36.70;;;16.40;;
79487;SDS011;68949;53.176;18.088;2024-02-26T03:12:14;33.80;;;17.00;;
79487;SDS011;68949;53.176;18.088;2024-02-26T03:14:41;34.40;;;16.50;;
79487;SDS011;68949;53.176;18.088;2024-02-26T03:17:07;35.40;;;16.00;;
79487;SDS011;68949;53.176;18.088;2024-02-26T03:19:34;36.10;;;17.60;;
79487;SDS011;68949;53.176;18.088;2024-02-26T03:22:01;35.00;;;16.90;;
79487;SDS011;68949;53.176;18.088;2024-02-26T03:24:30;33.00;;;16.30;;
79487;SDS011;68949;53.176;18.088;2024-02-26T03:26:57;30.40;;;15.10;;
79487;SDS011;68949;53.176;18.088;2024-02-26T03:29:23;29.80;;;14.00;;
79487;SDS011;68949;53.176;18.088;2024-02-26T03:31:50;26.60;;;13.50;;
79487;SDS011;68949;53.176;18.088;2024-02-26T03:34:17;33.00;;;16.50;;
79487;SDS011;68949;53.176;18.088;2024-02-26T03:36:45;33.90;;;17.60;;
79487;SDS011;68949;53.176;18.088;2024-02-26T03:39:11;36.00;;;16.80;;
79487;SDS011;68949;53.176;18.088;2024-02-26T03:41:38;34.80;;;15.20;;
79487;SDS011;68949;53.176;18.088;2024-02-26T03:44:05;31.20;;;15.80;;
79487;SDS011;68949;53.176;18.088;2024-02-26T03:46:31;34.20;;;16.30;;
79487;SDS011;68949;53.176;18.088;2024-02-26T03:48:58;31.70;;;16.70;;
79487;SDS011;68949;53.176;18.088;2024-02-26T03:51:25;30.90;;;15.40;;
79487;SDS011;68949;53.176;18.088;2024-02-26T03:53:53;32.10;;;15.00;;
79487;SDS011;68949;53.176;18.088;2024-02-26T03:56:19;30.10;;;13.80;;
79487;SDS011;68949;53.176;18.088;2024-02-26T03:58:47;33.40;;;14.60;;
79487;SDS011;68949;53.176;18.088;2024-02-26T04:01:13;25.00;;;12.20;;
79487;SDS011;68949;53.176;18.088;2024-02-26T04:03:40;32.00;;;16.00;;
79487;SDS011;68949;53.176;18.088;2024-02-26T04:06:10;33.20;;;15.60;;
79487;SDS011;68949;53.176;18.088;2024-02-26T04:08:41;34.60;;;16.60;;
79487;SDS011;68949;53.176;18.088;2024-02-26T04:11:07;28.10;;;13.20;;
79487;SDS011;68949;53.176;18.088;2024-02-26T04:13:34;30.80;;;15.80;;
79487;SDS011;68949;53.176;18.088;2024-02-26T04:16:01;31.40;;;14.60;;
79487;SDS011;68949;53.176;18.088;2024-02-26T04:18:29;29.60;;;14.30;;
79487;SDS011;68949;53.176;18.088;2024-02-26T04:20:56;30.70;;;16.30;;
79487;SDS011;68949;53.176;18.088;2024-02-26T04:23:23;29.30;;;15.40;;
79487;SDS011;68949;53.176;18.088;2024-02-26T04:25:50;29.50;;;15.20;;
79487;SDS011;68949;53.176;18.088;2024-02-26T04:28:19;27.40;;;14.50;;
79487;SDS011;68949;53.176;18.088;2024-02-26T04:30:52;21.90;;;11.80;;
79487;SDS011;68949;53.176;18.088;2024-02-26T04:33:20;26.90;;;14.50;;
79487;SDS011;68949;53.176;18.088;2024-02-26T04:35:46;27.60;;;14.20;;
79487;SDS011;68949;53.176;18.088;2024-02-26T04:38:13;21.50;;;11.70;;
79487;SDS011;68949;53.176;18.088;2024-02-26T04:40:40;17.80;;;8.00;;
79487;SDS011;68949;53.176;18.088;2024-02-26T04:43:07;27.00;;;13.50;;
79487;SDS011;68949;53.176;18.088;2024-02-26T04:45:34;24.80;;;13.80;;
79487;SDS011;68949;53.176;18.088;2024-02-26T04:48:01;25.90;;;14.20;;
79487;SDS011;68949;53.176;18.088;2024-02-26T04:50:28;27.50;;;13.50;;
79487;SDS011;68949;53.176;18.088;2024-02-26T04:52:55;27.10;;;13.60;;
79487;SDS011;68949;53.176;18.088;2024-02-26T04:55:22;26.20;;;13.30;;
79487;SDS011;68949;53.176;18.088;2024-02-26T04:57:48;28.90;;;14.50;;
79487;SDS011;68949;53.176;18.088;2024-02-26T05:00:15;28.70;;;14.50;;
79487;SDS011;68949;53.176;18.088;2024-02-26T05:02:42;27.90;;;14.40;;
79487;SDS011;68949;53.176;18.088;2024-02-26T05:05:09;25.60;;;13.10;;
79487;SDS011;68949;53.176;18.088;2024-02-26T05:07:46;29.00;;;14.60;;
79487;SDS011;68949;53.176;18.088;2024-02-26T05:10:13;27.50;;;13.00;;
79487;SDS011;68949;53.176;18.088;2024-02-26T05:12:40;25.30;;;13.50;;
79487;SDS011;68949;53.176;18.088;2024-02-26T05:15:09;26.70;;;13.80;;
79487;SDS011;68949;53.176;18.088;2024-02-26T05:17:36;27.40;;;14.20;;
79487;SDS011;68949;53.176;18.088;2024-02-26T05:20:03;32.40;;;15.00;;
79487;SDS011;68949;53.176;18.088;2024-02-26T05:22:30;31.10;;;16.00;;
79487;SDS011;68949;53.176;18.088;2024-02-26T05:24:57;32.60;;;16.20;;
79487;SDS011;68949;53.176;18.088;2024-02-26T05:27:24;28.90;;;15.20;;
79487;SDS011;68949;53.176;18.088;2024-02-26T05:29:51;30.80;;;14.40;;
79487;SDS011;68949;53.176;18.088;2024-02-26T05:32:18;27.20;;;14.00;;
79487;SDS011;68949;53.176;18.088;2024-02-26T05:34:45;29.70;;;13.80;;
79487;SDS011;68949;53.176;18.088;2024-02-26T05:37:11;27.50;;;14.40;;
79487;SDS011;68949;53.176;18.088;2024-02-26T05:39:38;29.90;;;13.40;;
79487;SDS011;68949;53.176;18.088;2024-02-26T05:42:05;28.30;;;13.70;;
79487;SDS011;68949;53.176;18.088;2024-02-26T05:44:32;29.50;;;14.20;;
79487;SDS011;68949;53.176;18.088;2024-02-26T05:46:58;28.20;;;13.30;;
79487;SDS011;68949;53.176;18.088;2024-02-26T05:49:25;22.50;;;9.90;;
79487;SDS011;68949;53.176;18.088;2024-02-26T05:51:52;29.60;;;13.70;;
79487;SDS011;68949;53.176;18.088;2024-02-26T05:54:18;25.60;;;12.90;;
79487;SDS011;68949;53.176;18.088;2024-02-26T05:56:46;29.90;;;14.90;;
79487;SDS011;68949;53.176;18.088;2024-02-26T05:59:12;25.10;;;12.80;;
79487;SDS011;68949;53.176;18.088;2024-02-26T06:01:41;27.20;;;13.10;;
79487;SDS011;68949;53.176;18.088;2024-02-26T06:04:08;30.60;;;15.90;;
79487;SDS011;68949;53.176;18.088;2024-02-26T06:06:35;35.60;;;17.00;;
79487;SDS011;68949;53.176;18.088;2024-02-26T06:09:01;35.80;;;17.20;;
79487;SDS011;68949;53.176;18.088;2024-02-26T06:11:29;37.40;;;17.50;;
79487;SDS011;68949;53.176;18.088;2024-02-26T06:13:56;33.50;;;17.90;;
79487;SDS011;68949;53.176;18.088;2024-02-26T06:16:23;28.70;;;12.30;;
79487;SDS011;68949;53.176;18.088;2024-02-26T06:18:50;29.20;;;14.00;;
79487;SDS011;68949;53.176;18.088;2024-02-26T06:21:17;23.10;;;11.10;;
79487;SDS011;68949;53.176;18.088;2024-02-26T06:23:43;30.10;;;14.90;;
79487;SDS011;68949;53.176;18.088;2024-02-26T06:26:10;34.10;;;16.50;;
79487;SDS011;68949;53.176;18.088;2024-02-26T06:28:37;36.60;;;17.70;;
79487;SDS011;68949;53.176;18.088;2024-02-26T06:31:07;33.10;;;16.50;;
79487;SDS011;68949;53.176;18.088;2024-02-26T06:33:34;27.00;;;12.40;;
79487;SDS011;68949;53.176;18.088;2024-02-26T06:36:00;34.10;;;16.60;;
79487;SDS011;68949;53.176;18.088;2024-02-26T06:38:27;32.80;;;16.60;;
79487;SDS011;68949;53.176;18.088;2024-02-26T06:40:54;27.60;;;14.10;;
79487;SDS011;68949;53.176;18.088;2024-02-26T06:43:21;37.00;;;17.20;;
79487;SDS011;68949;53.176;18.088;2024-02-26T06:45:47;38.30;;;18.60;;
79487;SDS011;68949;53.176;18.088;2024-02-26T06:48:14;33.90;;;16.80;;
79487;SDS011;68949;53.176;18.088;2024-02-26T06:50:41;40.30;;;18.60;;
79487;SDS011;68949;53.176;18.088;2024-02-26T06:53:08;37.10;;;18.50;;
79487;SDS011;68949;53.176;18.088;2024-02-26T06:55:35;35.90;;;18.80;;
79487;SDS011;68949;53.176;18.088;2024-02-26T06:58:01;38.00;;;18.30;;
79487;SDS011;68949;53.176;18.088;2024-02-26T07:00:28;34.00;;;16.70;;
79487;SDS011;68949;53.176;18.088;2024-02-26T07:02:55;29.70;;;16.90;;
79487;SDS011;68949;53.176;18.088;2024-02-26T07:05:21;32.80;;;16.20;;
79487;SDS011;68949;53.176;18.088;2024-02-26T07:07:48;30.00;;;15.70;;
79487;SDS011;68949;53.176;18.088;2024-02-26T07:10:15;30.30;;;15.70;;
79487;SDS011;68949;53.176;18.088;2024-02-26T07:12:42;33.30;;;16.90;;
79487;SDS011;68949;53.176;18.088;2024-02-26T07:15:09;30.10;;;15.00;;
79487;SDS011;68949;53.176;18.088;2024-02-26T07:17:36;32.90;;;16.90;;
79487;SDS011;68949;53.176;18.088;2024-02-26T07:20:03;34.00;;;18.30;;
79487;SDS011;68949;53.176;18.088;2024-02-26T07:22:31;29.90;;;15.70;;
79487;SDS011;68949;53.176;18.088;2024-02-26T07:24:58;31.00;;;15.50;;
79487;SDS011;68949;53.176;18.088;2024-02-26T07:27:25;27.30;;;13.90;;
79487;SDS011;68949;53.176;18.088;2024-02-26T07:29:52;31.20;;;17.20;;
79487;SDS011;68949;53.176;18.088;2024-02-26T07:32:18;28.00;;;15.20;;
79487;SDS011;68949;53.176;18.088;2024-02-26T07:34:45;34.50;;;17.70;;
79487;SDS011;68949;53.176;18.088;2024-02-26T07:37:12;31.00;;;15.80;;
79487;SDS011;68949;53.176;18.088;2024-02-26T07:39:39;29.90;;;17.20;;
79487;SDS011;68949;53.176;18.088;2024-02-26T07:42:05;25.60;;;12.40;;
79487;SDS011;68949;53.176;18.088;2024-02-26T07:44:33;30.40;;;16.10;;
79487;SDS011;68949;53.176;18.088;2024-02-26T07:47:01;30.70;;;16.10;;
79487;SDS011;68949;53.176;18.088;2024-02-26T07:49:27;30.40;;;15.90;;
79487;SDS011;68949;53.176;18.088;2024-02-26T07:51:54;32.80;;;17.80;;
79487;SDS011;68949;53.176;18.088;2024-02-26T07:54:24;32.10;;;17.00;;
79487;SDS011;68949;53.176;18.088;2024-02-26T07:56:51;28.40;;;14.80;;
79487;SDS011;68949;53.176;18.088;2024-02-26T07:59:17;28.70;;;15.90;;
79487;SDS011;68949;53.176;18.088;2024-02-26T08:01:51;33.90;;;17.30;;
79487;SDS011;68949;53.176;18.088;2024-02-26T08:04:18;29.60;;;16.80;;
79487;SDS011;68949;53.176;18.088;2024-02-26T08:06:45;25.40;;;13.00;;
79487;SDS011;68949;53.176;18.088;2024-02-26T08:09:12;24.50;;;12.20;;
79487;SDS011;68949;53.176;18.088;2024-02-26T08:11:39;25.10;;;13.30;;
79487;SDS011;68949;53.176;18.088;2024-02-26T08:14:06;34.50;;;16.50;;
79487;SDS011;68949;53.176;18.088;2024-02-26T08:16:33;27.90;;;14.70;;
79487;SDS011;68949;53.176;18.088;2024-02-26T08:18:59;32.40;;;17.30;;
79487;SDS011;68949;53.176;18.088;2024-02-26T08:21:26;27.70;;;13.30;;
79487;SDS011;68949;53.176;18.088;2024-02-26T08:23:53;32.00;;;17.50;;
79487;SDS011;68949;53.176;18.088;2024-02-26T08:26:21;32.80;;;18.60;;
79487;SDS011;68949;53.176;18.088;2024-02-26T08:28:50;30.20;;;16.80;;
79487;SDS011;68949;53.176;18.088;2024-02-26T08:31:18;26.30;;;12.90;;
79487;SDS011;68949;53.176;18.088;2024-02-26T08:33:44;24.10;;;12.40;;
79487;SDS011;68949;53.176;18.088;2024-02-26T08:36:11;30.60;;;15.70;;
79487;SDS011;68949;53.176;18.088;2024-02-26T08:38:38;29.50;;;15.80;;
79487;SDS011;68949;53.176;18.088;2024-02-26T08:41:05;20.00;;;9.90;;
79487;SDS011;68949;53.176;18.088;2024-02-26T08:43:32;32.40;;;16.80;;
79487;SDS011;68949;53.176;18.088;2024-02-26T08:45:59;30.10;;;15.20;;
79487;SDS011;68949;53.176;18.088;2024-02-26T08:48:26;28.80;;;15.40;;
79487;SDS011;68949;53.176;18.088;2024-02-26T08:50:53;21.60;;;11.60;;
79487;SDS011;68949;53.176;18.088;2024-02-26T08:53:20;31.40;;;17.80;;
79487;SDS011;68949;53.176;18.088;2024-02-26T08:55:47;33.50;;;16.60;;
79487;SDS011;68949;53.176;18.088;2024-02-26T08:58:14;30.30;;;14.70;;
79487;SDS011;68949;53.176;18.088;2024-02-26T09:00:41;37.70;;;19.00;;
79487;SDS011;68949;53.176;18.088;2024-02-26T09:03:08;40.80;;;20.80;;
79487;SDS011;68949;53.176;18.088;2024-02-26T09:05:35;27.50;;;12.80;;
79487;SDS011;68949;53.176;18.088;2024-02-26T09:08:02;32.00;;;15.70;;
79487;SDS011;68949;53.176;18.088;2024-02-26T09:10:31;33.60;;;17.10;;
79487;SDS011;68949;53.176;18.088;2024-02-26T09:12:59;33.80;;;18.70;;
79487;SDS011;68949;53.176;18.088;2024-02-26T09:15:28;34.20;;;18.80;;
79487;SDS011;68949;53.176;18.088;2024-02-26T09:17:55;36.80;;;19.00;;
79487;SDS011;68949;53.176;18.088;2024-02-26T09:20:22;28.60;;;13.80;;
79487;SDS011;68949;53.176;18.088;2024-02-26T09:22:50;31.40;;;16.10;;
79487;SDS011;68949;53.176;18.088;2024-02-26T09:25:17;35.60;;;18.30;;
79487;SDS011;68949;53.176;18.088;2024-02-26T09:27:44;42.10;;;20.80;;
79487;SDS011;68949;53.176;18.088;2024-02-26T09:30:13;39.20;;;18.20;;
79487;SDS011;68949;53.176;18.088;2024-02-26T09:32:40;31.90;;;18.30;;
79487;SDS011;68949;53.176;18.088;2024-02-26T09:35:07;29.80;;;15.70;;
79487;SDS011;68949;53.176;18.088;2024-02-26T09:37:34;28.90;;;16.20;;
79487;SDS011;68949;53.176;18.088;2024-02-26T09:40:04;32.70;;;15.00;;
79487;SDS011;68949;53.176;18.088;2024-02-26T09:42:36;29.50;;;15.50;;
79487;SDS011;68949;53.176;18.088;2024-02-26T09:45:15;29.30;;;15.20;;
79487;SDS011;68949;53.176;18.088;2024-02-26T09:47:45;30.10;;;13.30;;
79487;SDS011;68949;53.176;18.088;2024-02-26T09:50:17;27.50;;;13.60;;
79487;SDS011;68949;53.176;18.088;2024-02-26T09:52:45;27.80;;;14.40;;
79487;SDS011;68949;53.176;18.088;2024-02-26T09:55:12;21.70;;;12.00;;
79487;SDS011;68949;53.176;18.088;2024-02-26T09:57:42;27.80;;;14.80;;
79487;SDS011;68949;53.176;18.088;2024-02-26T10:00:17;24.60;;;12.80;;
79487;SDS011;68949;53.176;18.088;2024-02-26T10:02:49;27.40;;;13.90;;
79487;SDS011;68949;53.176;18.088;2024-02-26T10:05:18;28.00;;;12.40;;
79487;SDS011;68949;53.176;18.088;2024-02-26T10:07:46;23.50;;;13.00;;
79487;SDS011;68949;53.176;18.088;2024-02-26T10:10:14;28.20;;;14.40;;
79487;SDS011;68949;53.176;18.088;2024-02-26T10:12:42;23.50;;;11.60;;
79487;SDS011;68949;53.176;18.088;2024-02-26T10:15:10;24.70;;;12.40;;
79487;SDS011;68949;53.176;18.088;2024-02-26T10:17:37;26.80;;;13.70;;
79487;SDS011;68949;53.176;18.088;2024-02-26T10:20:17;23.80;;;13.60;;
79487;SDS011;68949;53.176;18.088;2024-02-26T10:22:48;22.70;;;12.70;;
79487;SDS011;68949;53.176;18.088;2024-02-26T10:25:15;24.40;;;12.70;;
79487;SDS011;68949;53.176;18.088;2024-02-26T10:27:45;24.20;;;12.60;;
79487;SDS011;68949;53.176;18.088;2024-02-26T10:30:17;26.90;;;13.60;;
79487;SDS011;68949;53.176;18.088;2024-02-26T10:32:45;26.70;;;12.80;;
79487;SDS011;68949;53.176;18.088;2024-02-26T10:35:15;25.90;;;13.20;;
79487;SDS011;68949;53.176;18.088;2024-02-26T10:37:44;19.10;;;9.40;;
79487;SDS011;68949;53.176;18.088;2024-02-26T10:40:12;18.60;;;9.00;;
79487;SDS011;68949;53.176;18.088;2024-02-26T10:42:42;19.20;;;9.10;;
79487;SDS011;68949;53.176;18.088;2024-02-26T10:45:09;21.40;;;10.20;;
79487;SDS011;68949;53.176;18.088;2024-02-26T10:47:36;17.80;;;9.70;;
79487;SDS011;68949;53.176;18.088;2024-02-26T10:50:05;19.40;;;9.60;;
79487;SDS011;68949;53.176;18.088;2024-02-26T10:52:34;21.20;;;10.50;;
79487;SDS011;68949;53.176;18.088;2024-02-26T10:55:04;19.40;;;9.50;;
79487;SDS011;68949;53.176;18.088;2024-02-26T10:57:40;22.90;;;11.40;;
79487;SDS011;68949;53.176;18.088;2024-02-26T11:00:13;23.20;;;10.10;;
79487;SDS011;68949;53.176;18.088;2024-02-26T11:02:47;21.90;;;11.40;;
79487;SDS011;68949;53.176;18.088;2024-02-26T11:05:15;24.30;;;12.00;;
79487;SDS011;68949;53.176;18.088;2024-02-26T11:07:44;20.10;;;10.00;;
79487;SDS011;68949;53.176;18.088;2024-02-26T11:10:15;24.30;;;12.00;;
79487;SDS011;68949;53.176;18.088;2024-02-26T11:12:44;21.70;;;12.00;;
79487;SDS011;68949;53.176;18.088;2024-02-26T11:15:13;24.70;;;12.20;;
79487;SDS011;68949;53.176;18.088;2024-02-26T11:17:42;24.50;;;12.70;;
79487;SDS011;68949;53.176;18.088;2024-02-26T11:20:11;25.20;;;12.00;;
79487;SDS011;68949;53.176;18.088;2024-02-26T11:22:40;27.00;;;13.90;;
79487;SDS011;68949;53.176;18.088;2024-02-26T11:25:07;26.50;;;13.20;;
79487;SDS011;68949;53.176;18.088;2024-02-26T11:27:38;25.10;;;13.30;;
79487;SDS011;68949;53.176;18.088;2024-02-26T11:30:12;27.30;;;14.00;;
79487;SDS011;68949;53.176;18.088;2024-02-26T11:32:46;21.10;;;11.40;;
79487;SDS011;68949;53.176;18.088;2024-02-26T11:35:15;22.30;;;12.00;;
79487;SDS011;68949;53.176;18.088;2024-02-26T11:37:55;24.50;;;12.00;;
79487;SDS011;68949;53.176;18.088;2024-02-26T11:40:26;23.70;;;12.20;;
79487;SDS011;68949;53.176;18.088;2024-02-26T11:42:54;24.60;;;13.20;;
79487;SDS011;68949;53.176;18.088;2024-02-26T11:48:15;22.40;;;12.10;;
79487;SDS011;68949;53.176;18.088;2024-02-26T11:50:48;24.90;;;13.20;;
79487;SDS011;68949;53.176;18.088;2024-02-26T11:53:32;24.10;;;12.70;;
79487;SDS011;68949;53.176;18.088;2024-02-26T11:58:43;24.90;;;14.00;;
79487;SDS011;68949;53.176;18.088;2024-02-26T12:04:27;25.00;;;12.20;;
79487;SDS011;68949;53.176;18.088;2024-02-26T12:07:02;21.10;;;12.10;;
79487;SDS011;68949;53.176;18.088;2024-02-26T12:12:10;24.90;;;13.20;;
79487;SDS011;68949;53.176;18.088;2024-02-26T12:14:51;27.40;;;14.00;;
79487;SDS011;68949;53.176;18.088;2024-02-26T12:17:21;25.10;;;12.70;;
79487;SDS011;68949;53.176;18.088;2024-02-26T12:19:52;28.50;;;13.80;;
79487;SDS011;68949;53.176;18.088;2024-02-26T12:22:20;28.50;;;13.50;;
79487;SDS011;68949;53.176;18.088;2024-02-26T12:24:47;24.90;;;13.00;;
79487;SDS011;68949;53.176;18.088;2024-02-26T12:27:14;29.10;;;13.60;;
79487;SDS011;68949;53.176;18.088;2024-02-26T12:29:41;25.10;;;11.70;;
79487;SDS011;68949;53.176;18.088;2024-02-26T12:32:08;25.10;;;11.50;;
79487;SDS011;68949;53.176;18.088;2024-02-26T12:34:35;22.70;;;10.90;;
79487;SDS011;68949;53.176;18.088;2024-02-26T12:37:02;22.90;;;11.40;;
79487;SDS011;68949;53.176;18.088;2024-02-26T12:39:29;20.90;;;10.40;;
79487;SDS011;68949;53.176;18.088;2024-02-26T12:41:57;26.00;;;13.00;;
79487;SDS011;68949;53.176;18.088;2024-02-26T12:44:26;25.90;;;12.20;;
79487;SDS011;68949;53.176;18.088;2024-02-26T12:47:02;22.20;;;10.90;;
79487;SDS011;68949;53.176;18.088;2024-02-26T12:49:31;20.90;;;11.20;;
79487;SDS011;68949;53.176;18.088;2024-02-26T12:51:59;21.50;;;10.50;;
79487;SDS011;68949;53.176;18.088;2024-02-26T12:54:31;21.50;;;9.80;;
79487;SDS011;68949;53.176;18.088;2024-02-26T12:57:02;25.00;;;12.10;;
79487;SDS011;68949;53.176;18.088;2024-02-26T12:59:30;33.40;;;15.60;;
79487;SDS011;68949;53.176;18.088;2024-02-26T13:01:58;31.00;;;15.10;;
79487;SDS011;68949;53.176;18.088;2024-02-26T13:04:28;35.10;;;19.20;;
79487;SDS011;68949;53.176;18.088;2024-02-26T13:06:57;31.40;;;16.20;;
79487;SDS011;68949;53.176;18.088;2024-02-26T13:09:38;31.40;;;16.40;;
79487;SDS011;68949;53.176;18.088;2024-02-26T13:12:06;30.80;;;15.60;;
79487;SDS011;68949;53.176;18.088;2024-02-26T13:14:34;18.60;;;9.70;;
79487;SDS011;68949;53.176;18.088;2024-02-26T13:17:02;23.30;;;12.80;;
79487;SDS011;68949;53.176;18.088;2024-02-26T13:19:29;28.50;;;15.20;;
79487;SDS011;68949;53.176;18.088;2024-02-26T13:22:03;24.00;;;13.20;;
79487;SDS011;68949;53.176;18.088;2024-02-26T13:24:41;23.10;;;12.50;;
79487;SDS011;68949;53.176;18.088;2024-02-26T13:27:08;23.70;;;13.10;;
79487;SDS011;68949;53.176;18.088;2024-02-26T13:29:35;27.30;;;13.90;;
79487;SDS011;68949;53.176;18.088;2024-02-26T13:32:03;24.30;;;11.60;;
79487;SDS011;68949;53.176;18.088;2024-02-26T13:34:30;27.00;;;14.30;;
79487;SDS011;68949;53.176;18.088;2024-02-26T13:36:57;24.90;;;11.20;;
79487;SDS011;68949;53.176;18.088;2024-02-26T13:39:25;23.90;;;12.80;;
79487;SDS011;68949;53.176;18.088;2024-02-26T13:41:54;26.20;;;12.90;;
79487;SDS011;68949;53.176;18.088;2024-02-26T13:44:21;24.80;;;13.80;;
79487;SDS011;68949;53.176;18.088;2024-02-26T13:46:50;22.20;;;10.90;;
79487;SDS011;68949;53.176;18.088;2024-02-26T13:49:17;23.30;;;11.60;;
79487;SDS011;68949;53.176;18.088;2024-02-26T13:51:44;17.90;;;9.60;;
79487;SDS011;68949;53.176;18.088;2024-02-26T13:54:12;21.60;;;10.90;;
79487;SDS011;68949;53.176;18.088;2024-02-26T13:56:41;22.10;;;13.00;;
79487;SDS011;68949;53.176;18.088;2024-02-26T13:59:08;24.40;;;12.00;;
79487;SDS011;68949;53.176;18.088;2024-02-26T14:01:36;21.60;;;11.30;;
79487;SDS011;68949;53.176;18.088;2024-02-26T14:04:03;18.70;;;9.70;;
79487;SDS011;68949;53.176;18.088;2024-02-26T14:06:31;22.70;;;11.30;;
79487;SDS011;68949;53.176;18.088;2024-02-26T14:08:59;23.50;;;10.80;;
79487;SDS011;68949;53.176;18.088;2024-02-26T14:11:27;20.80;;;9.00;;
79487;SDS011;68949;53.176;18.088;2024-02-26T14:13:59;19.60;;;9.90;;
79487;SDS011;68949;53.176;18.088;2024-02-26T14:16:26;22.50;;;10.00;;
79487;SDS011;68949;53.176;18.088;2024-02-26T14:18:53;19.10;;;9.90;;
79487;SDS011;68949;53.176;18.088;2024-02-26T14:21:20;22.20;;;9.30;;
79487;SDS011;68949;53.176;18.088;2024-02-26T14:23:48;17.00;;;8.10;;
79487;SDS011;68949;53.176;18.088;2024-02-26T14:26:17;16.10;;;8.00;;